Time;durP1;ratioP1;P1;durP2;ratioP2;P2;SDS_P1;SDS_P2;PMS_P1;PMS_P2;Temp;Humidity;BMP_temperature;BMP_pressure;BME280_temperature;BME280_humidity;BME280_pressure;Samples;Min_cycle;Max_cycle;Signal;HPM_P1;HPM_P2
2022/01/10 10:19:30;;;;;;;9.73;5.43;;;2.60;99.90;;;;;;4968601;23;20294;-77
2022/01/10 10:21:59;;;;;;;9.97;3.90;;;2.80;99.90;;;;;;4939133;28;20209;-80
2022/01/10 10:24:29;;;;;;;10.77;3.47;;;2.90;99.90;;;;;;4950419;29;20650;-75
2022/01/10 10:26:58;;;;;;;5.63;2.97;;;3.00;99.90;;;;;;4942796;28;20300;-76
2022/01/10 10:29:25;;;;;;;7.33;3.50;;;3.00;99.90;;;;;;4936614;29;20212;-74
2022/01/10 10:31:54;;;;;;;8.57;3.40;;;3.00;99.90;;;;;;4936908;29;20219;-80
2022/01/10 10:34:22;;;;;;;10.50;3.60;;;2.90;99.90;;;;;;4936643;29;20219;-79
2022/01/10 10:37:02;;;;;;;7.10;3.83;;;3.10;99.90;;;;;;4940244;29;20255;-76
2022/01/10 10:39:30;;;;;;;7.37;3.80;;;3.00;99.90;;;;;;4936445;29;20215;-75
2022/01/10 10:42:00;;;;;;;7.97;3.33;;;3.20;99.90;;;;;;4936315;29;20220;-74
2022/01/10 10:44:28;;;;;;;7.07;3.40;;;3.20;99.90;;;;;;4936438;29;20212;-75
2022/01/10 10:46:54;;;;;;;7.37;3.00;;;3.40;99.90;;;;;;4935947;29;20235;-74
2022/01/10 10:49:25;;;;;;;6.30;3.17;;;3.50;99.90;;;;;;4936581;29;20208;-75
2022/01/10 10:51:52;;;;;;;5.80;3.43;;;3.40;99.90;;;;;;4936228;29;20205;-74
2022/01/10 10:54:24;;;;;;;5.43;3.10;;;3.40;99.90;;;;;;4936201;29;20211;-76
2022/01/10 10:56:50;;;;;;;5.60;3.17;;;3.50;99.90;;;;;;4936193;29;20240;-75
2022/01/10 10:59:17;;;;;;;5.97;3.30;;;3.50;99.90;;;;;;4936072;29;20815;-74
2022/01/10 11:01:44;;;;;;;5.73;2.90;;;3.70;99.90;;;;;;4936264;29;20213;-75
2022/01/10 11:04:12;;;;;;;6.70;3.13;;;3.80;99.90;;;;;;4935840;29;20576;-73
2022/01/10 11:06:40;;;;;;;7.43;3.40;;;3.90;99.90;;;;;;4937783;29;20737;-73
2022/01/10 11:09:12;;;;;;;7.87;4.03;;;3.70;99.90;;;;;;4940299;29;20204;-73
2022/01/10 11:11:41;;;;;;;6.50;3.77;;;3.70;99.90;;;;;;4935166;29;20208;-73
2022/01/10 11:14:09;;;;;;;6.33;3.27;;;3.60;99.90;;;;;;4935588;29;20219;-75
2022/01/10 11:16:37;;;;;;;7.00;3.70;;;3.80;99.90;;;;;;4935643;29;20240;-72
2022/01/10 11:19:12;;;;;;;9.13;3.53;;;3.70;99.90;;;;;;4935692;29;20276;-72
2022/01/10 11:21:40;;;;;;;6.67;4.07;;;3.80;99.90;;;;;;4935844;29;20212;-72
2022/01/10 11:24:08;;;;;;;9.20;4.07;;;3.80;99.90;;;;;;4935823;29;20205;-72
2022/01/10 11:26:41;;;;;;;6.20;3.70;;;3.70;99.90;;;;;;4935870;29;20233;-74
2022/01/10 11:29:09;;;;;;;9.23;3.70;;;3.90;99.90;;;;;;4935979;29;20223;-74
2022/01/10 11:31:38;;;;;;;6.20;3.23;;;3.80;99.90;;;;;;4935934;29;20260;-75
2022/01/10 11:34:04;;;;;;;7.00;3.77;;;3.70;99.90;;;;;;4935040;29;20304;-74
2022/01/10 11:36:31;;;;;;;5.77;3.30;;;3.80;99.90;;;;;;4935409;29;20228;-74
2022/01/10 11:39:00;;;;;;;6.03;3.40;;;3.90;99.90;;;;;;4935455;29;20216;-74
2022/01/10 11:41:29;;;;;;;6.47;3.40;;;3.70;99.90;;;;;;4935666;29;20212;-75
2022/01/10 11:44:03;;;;;;;4.77;2.90;;;3.60;99.90;;;;;;4935436;29;20217;-73
2022/01/10 11:46:35;;;;;;;6.90;3.27;;;3.50;99.90;;;;;;4935668;29;20220;-74
2022/01/10 11:49:04;;;;;;;6.00;3.20;;;3.50;99.90;;;;;;4938020;29;20204;-73
2022/01/10 11:51:34;;;;;;;7.00;3.30;;;3.60;99.90;;;;;;4942777;29;20200;-73
2022/01/10 11:54:13;;;;;;;9.33;3.60;;;3.40;99.90;;;;;;4943263;28;20208;-74
2022/01/10 11:56:42;;;;;;;5.90;3.10;;;3.50;99.90;;;;;;4937748;29;20220;-72
2022/01/10 11:59:22;;;;;;;8.17;3.80;;;3.70;99.90;;;;;;4935609;29;20208;-73
2022/01/10 12:01:53;;;;;;;5.77;3.33;;;3.70;99.90;;;;;;4935396;29;20215;-73
2022/01/10 12:04:20;;;;;;;7.10;2.83;;;3.60;99.90;;;;;;4935236;29;20222;-73
2022/01/10 12:06:48;;;;;;;7.47;3.57;;;3.70;99.90;;;;;;4935489;29;20242;-72
2022/01/10 12:09:15;;;;;;;9.00;2.87;;;3.90;99.90;;;;;;4935538;29;20304;-72
2022/01/10 12:11:45;;;;;;;8.07;3.50;;;3.80;99.90;;;;;;4935655;29;20209;-73
2022/01/10 12:14:12;;;;;;;7.73;3.63;;;3.80;99.90;;;;;;4935791;29;20288;-72
2022/01/10 12:16:40;;;;;;;8.27;3.70;;;3.80;99.90;;;;;;4935155;29;20235;-72
2022/01/10 12:19:09;;;;;;;6.60;3.83;;;3.80;99.90;;;;;;4934867;29;20213;-72
2022/01/10 12:21:36;;;;;;;8.20;4.03;;;3.60;99.90;;;;;;4935346;29;20213;-73
2022/01/10 12:24:04;;;;;;;5.67;3.10;;;3.70;99.90;;;;;;4935201;29;20201;-73
2022/01/10 12:26:31;;;;;;;10.93;3.77;;;3.70;99.90;;;;;;4936361;29;20243;-73
2022/01/10 12:29:00;;;;;;;7.07;2.97;;;3.70;99.90;;;;;;4951935;29;20312;-74
2022/01/10 12:31:29;;;;;;;7.33;3.53;;;3.80;99.90;;;;;;4964644;29;20204;-74
2022/01/10 12:33:58;;;;;;;8.23;3.37;;;3.90;99.90;;;;;;4939620;29;20213;-76
2022/01/10 12:36:28;;;;;;;7.30;3.50;;;3.90;99.90;;;;;;4926679;29;20704;-74
2022/01/10 12:38:58;;;;;;;6.93;3.27;;;4.00;99.90;;;;;;4933754;29;20232;-76
2022/01/10 12:41:26;;;;;;;8.23;3.93;;;4.00;99.90;;;;;;4935176;29;20208;-75
2022/01/10 12:43:53;;;;;;;8.13;3.73;;;4.20;99.90;;;;;;4936457;29;20262;-74
2022/01/10 12:46:22;;;;;;;7.30;3.60;;;4.00;99.90;;;;;;4934231;29;20311;-76
2022/01/10 12:48:51;;;;;;;6.13;3.50;;;3.90;99.90;;;;;;4937210;29;20223;-78
2022/01/10 12:51:21;;;;;;;8.53;4.17;;;3.80;99.90;;;;;;4952051;29;20294;-75
2022/01/10 12:53:51;;;;;;;6.40;3.53;;;3.70;99.90;;;;;;4930199;29;20209;-76
2022/01/10 12:56:19;;;;;;;9.60;4.13;;;3.70;99.90;;;;;;4933392;29;20780;-78
2022/01/10 12:58:46;;;;;;;8.83;4.17;;;3.90;99.90;;;;;;4938218;29;20232;-82
2022/01/10 13:01:15;;;;;;;8.83;4.00;;;4.10;99.90;;;;;;4938519;29;20236;-74
2022/01/10 13:03:47;;;;;;;9.60;4.57;;;4.10;99.90;;;;;;4931605;29;20310;-76
2022/01/10 13:06:14;;;;;;;7.27;3.87;;;4.20;99.90;;;;;;4919099;29;20229;-74
2022/01/10 13:08:42;;;;;;;9.53;4.33;;;4.40;99.90;;;;;;4919243;29;20216;-82
2022/01/10 13:11:14;;;;;;;15.13;5.80;;;4.20;99.90;;;;;;4919433;29;20308;-78
2022/01/10 13:13:44;;;;;;;14.13;5.67;;;4.00;99.90;;;;;;4919526;29;20301;-78
2022/01/10 13:16:25;;;;;;;10.97;4.53;;;5.20;99.90;;;;;;4919369;29;20592;-75
2022/01/10 13:18:57;;;;;;;11.00;5.77;;;6.50;99.90;;;;;;4918344;29;20233;-74
2022/01/10 13:21:29;;;;;;;14.10;6.50;;;6.00;99.90;;;;;;4931379;29;20208;-74
2022/01/10 13:24:12;;;;;;;9.57;4.67;;;5.20;99.90;;;;;;4942297;28;20214;-73
2022/01/10 13:26:59;;;;;;;7.00;3.90;;;4.60;99.90;;;;;;4945877;29;20695;-74
2022/01/10 13:29:41;;;;;;;13.93;4.90;;;4.30;99.90;;;;;;4944310;29;20205;-74
2022/01/10 13:32:20;;;;;;;9.90;4.70;;;4.20;99.90;;;;;;4931867;29;20250;-73
2022/01/10 13:34:50;;;;;;;10.63;4.77;;;4.10;99.90;;;;;;4940349;29;20204;-78
2022/01/10 13:37:29;;;;;;;11.17;5.17;;;4.10;99.90;;;;;;4951497;28;20220;-73
2022/01/10 13:40:06;;;;;;;11.70;4.87;;;4.20;99.90;;;;;;4956602;28;20670;-74
2022/01/10 13:42:38;;;;;;;9.10;4.50;;;4.10;99.90;;;;;;4937360;29;20217;-74
2022/01/10 13:45:06;;;;;;;11.93;3.70;;;3.90;99.90;;;;;;4937259;29;20632;-74
2022/01/10 13:47:56;;;;;;;9.57;3.53;;;3.70;99.90;;;;;;4947621;29;20216;-74
2022/01/10 13:50:25;;;;;;;10.73;4.03;;;3.60;99.90;;;;;;4951616;28;20200;-73
2022/01/10 13:53:04;;;;;;;9.10;4.30;;;3.70;99.90;;;;;;4917149;29;20216;-75
2022/01/10 13:55:33;;;;;;;8.00;4.07;;;3.90;99.90;;;;;;4918511;29;20230;-73
2022/01/10 13:58:01;;;;;;;8.57;4.33;;;3.70;99.90;;;;;;4935531;29;20243;-79
2022/01/10 14:00:28;;;;;;;13.40;4.20;;;3.70;99.90;;;;;;4938122;29;20395;-73
2022/01/10 14:02:55;;;;;;;7.20;3.57;;;3.40;99.90;;;;;;4946901;28;20212;-73
2022/01/10 14:05:24;;;;;;;10.57;5.30;;;3.60;99.90;;;;;;4945848;29;20224;-73
2022/01/10 14:07:52;;;;;;;8.70;4.90;;;3.60;99.90;;;;;;4944331;28;20671;-72
2022/01/10 14:10:19;;;;;;;12.67;5.03;;;3.50;99.90;;;;;;4941319;28;20296;-74
2022/01/10 14:12:47;;;;;;;8.63;4.27;;;3.50;99.90;;;;;;4917540;29;20209;-75
2022/01/10 14:15:14;;;;;;;9.50;4.80;;;3.40;99.90;;;;;;4918035;29;20232;-74
2022/01/10 14:17:40;;;;;;;9.37;3.93;;;3.40;99.90;;;;;;4942437;29;20271;-74
2022/01/10 14:20:08;;;;;;;9.30;4.07;;;3.40;99.90;;;;;;4955746;28;20666;-74
2022/01/10 14:22:35;;;;;;;12.33;4.33;;;3.50;99.90;;;;;;4917946;29;20568;-74
2022/01/10 14:25:02;;;;;;;15.03;4.93;;;3.50;99.90;;;;;;4941070;29;20228;-74
2022/01/10 14:27:30;;;;;;;7.30;3.67;;;3.60;99.90;;;;;;4955236;29;20200;-73
2022/01/10 14:29:59;;;;;;;8.07;4.50;;;3.60;99.90;;;;;;4917040;28;20205;-74
2022/01/10 14:32:26;;;;;;;11.27;3.50;;;3.50;99.90;;;;;;4930711;29;20208;-74
2022/01/10 14:34:53;;;;;;;8.30;4.47;;;3.40;99.90;;;;;;4930475;29;21574;-72
2022/01/10 14:37:20;;;;;;;11.23;4.50;;;3.30;99.90;;;;;;4925571;29;20209;-72
2022/01/10 14:39:47;;;;;;;8.60;4.27;;;3.00;99.90;;;;;;4917535;29;20213;-72
2022/01/10 14:42:15;;;;;;;11.37;4.53;;;2.90;99.90;;;;;;4917914;29;20212;-77
2022/01/10 14:44:43;;;;;;;9.97;4.47;;;2.90;99.90;;;;;;4930191;29;20227;-74
2022/01/10 14:47:11;;;;;;;10.77;4.43;;;2.90;99.90;;;;;;4944590;29;20341;-78
2022/01/10 14:49:40;;;;;;;8.53;4.00;;;3.00;99.90;;;;;;4944792;28;20211;-76
2022/01/10 14:52:10;;;;;;;9.33;4.50;;;3.10;99.90;;;;;;4946499;29;20624;-77
2022/01/10 14:54:37;;;;;;;9.80;4.00;;;3.10;99.90;;;;;;4946283;28;20298;-73
2022/01/10 14:57:04;;;;;;;9.97;4.20;;;3.20;99.90;;;;;;4944835;28;20209;-73
2022/01/10 14:59:32;;;;;;;10.80;4.77;;;3.10;99.90;;;;;;4941835;29;20315;-74
2022/01/10 15:02:00;;;;;;;13.90;4.80;;;3.20;99.90;;;;;;4938347;29;20208;-76
2022/01/10 15:04:28;;;;;;;9.80;4.70;;;3.10;99.90;;;;;;4937733;29;20308;-73
2022/01/10 15:06:54;;;;;;;9.17;4.90;;;3.10;99.90;;;;;;4954479;28;20295;-77
2022/01/10 15:09:22;;;;;;;8.97;4.37;;;3.10;99.90;;;;;;4954790;28;20216;-71
2022/01/10 15:11:49;;;;;;;10.43;5.17;;;3.00;99.90;;;;;;4927954;28;20665;-72
2022/01/10 15:14:16;;;;;;;10.73;4.50;;;2.90;99.90;;;;;;4916964;29;20220;-72
2022/01/10 15:16:44;;;;;;;10.63;5.17;;;3.00;99.90;;;;;;4916569;29;20236;-77
2022/01/10 15:19:11;;;;;;;12.87;5.40;;;3.10;99.90;;;;;;4916698;29;20263;-73
2022/01/10 15:21:42;;;;;;;15.90;5.80;;;3.20;99.90;;;;;;4916814;29;20210;-79
2022/01/10 15:24:10;;;;;;;9.77;5.13;;;3.10;99.90;;;;;;4916755;29;20210;-76
2022/01/10 15:26:37;;;;;;;14.30;5.60;;;3.20;99.90;;;;;;4942634;29;20231;-75
2022/01/10 15:29:06;;;;;;;12.83;5.27;;;3.30;99.90;;;;;;4954135;29;20219;-74
2022/01/10 15:31:33;;;;;;;9.67;5.00;;;3.40;99.90;;;;;;4932239;29;20313;-73
2022/01/10 15:33:59;;;;;;;11.27;5.37;;;3.20;99.90;;;;;;4916073;29;20213;-76
2022/01/10 15:36:26;;;;;;;9.63;5.57;;;3.10;99.90;;;;;;4916148;29;20242;-75
2022/01/10 15:38:56;;;;;;;9.50;4.90;;;3.10;99.90;;;;;;4916227;29;20336;-74
2022/01/10 15:41:25;;;;;;;8.53;4.37;;;3.10;99.90;;;;;;4915816;29;20219;-75
2022/01/10 15:43:52;;;;;;;8.80;4.47;;;3.00;99.90;;;;;;4925667;29;20657;-75
2022/01/10 15:46:20;;;;;;;9.40;4.80;;;2.90;99.90;;;;;;4930807;29;20224;-75
2022/01/10 15:48:47;;;;;;;14.67;5.67;;;2.80;99.90;;;;;;4924039;29;21826;-75
2022/01/10 15:51:14;;;;;;;11.60;5.00;;;2.80;99.90;;;;;;4923247;29;20216;-75
2022/01/10 15:53:41;;;;;;;8.67;4.33;;;2.80;99.90;;;;;;4925379;29;20201;-75
2022/01/10 15:56:09;;;;;;;13.53;5.27;;;2.80;99.90;;;;;;4935327;29;20576;-75
2022/01/10 15:58:37;;;;;;;11.87;5.10;;;2.80;99.90;;;;;;4934753;29;20238;-75
2022/01/10 16:01:05;;;;;;;10.60;5.30;;;2.80;99.90;;;;;;4927544;29;20209;-75
2022/01/10 16:03:32;;;;;;;10.97;4.77;;;2.90;99.90;;;;;;4916001;29;20205;-74
2022/01/10 16:05:59;;;;;;;12.47;5.00;;;3.00;99.90;;;;;;4915739;29;20229;-74
2022/01/10 16:08:26;;;;;;;9.77;5.13;;;2.90;99.90;;;;;;4915983;29;20216;-76
2022/01/10 16:10:53;;;;;;;12.90;5.90;;;3.00;99.90;;;;;;4915654;29;20210;-75
2022/01/10 16:13:23;;;;;;;12.47;5.73;;;3.10;99.90;;;;;;4916219;29;20308;-76
2022/01/10 16:15:51;;;;;;;13.53;5.57;;;3.00;99.90;;;;;;4915900;29;20722;-76
2022/01/10 16:18:17;;;;;;;10.50;5.00;;;2.90;99.90;;;;;;4915770;29;20237;-76
2022/01/10 16:20:45;;;;;;;11.60;5.30;;;2.80;99.90;;;;;;4919651;29;20205;-75
2022/01/10 16:23:12;;;;;;;12.20;6.07;;;2.80;99.90;;;;;;4934797;29;20208;-75
2022/01/10 16:25:39;;;;;;;12.50;5.47;;;3.00;99.90;;;;;;4941827;29;20582;-76
2022/01/10 16:28:06;;;;;;;15.23;6.47;;;2.90;99.90;;;;;;4950243;28;20204;-76
2022/01/10 16:30:35;;;;;;;13.07;6.07;;;3.00;99.90;;;;;;4949295;29;20212;-76
2022/01/10 16:33:02;;;;;;;15.00;5.60;;;3.10;99.90;;;;;;4947432;29;20223;-76
2022/01/10 16:35:28;;;;;;;9.53;5.20;;;2.90;99.90;;;;;;4939013;29;20236;-75
2022/01/10 16:37:55;;;;;;;11.83;5.60;;;2.90;99.90;;;;;;4938451;29;20212;-75
2022/01/10 16:40:23;;;;;;;11.97;5.37;;;2.80;99.90;;;;;;4936797;29;20219;-75
2022/01/10 16:42:50;;;;;;;14.07;6.03;;;3.00;99.90;;;;;;4920403;29;20676;-75
2022/01/10 16:45:17;;;;;;;12.10;5.33;;;3.00;99.90;;;;;;4953209;29;20695;-77
2022/01/10 16:47:45;;;;;;;14.37;6.63;;;2.90;99.90;;;;;;4934540;29;20200;-76
2022/01/10 16:50:13;;;;;;;14.47;5.87;;;3.00;99.90;;;;;;4954912;28;20230;-75
2022/01/10 16:52:40;;;;;;;12.37;5.77;;;2.90;99.90;;;;;;4929993;29;20292;-74
2022/01/10 16:55:07;;;;;;;11.87;5.40;;;3.00;99.90;;;;;;4919776;29;20226;-76
2022/01/10 16:57:34;;;;;;;13.47;5.60;;;2.90;99.90;;;;;;4918398;29;20332;-75
2022/01/10 17:00:01;;;;;;;15.77;6.17;;;2.80;99.90;;;;;;4918958;29;20708;-76
2022/01/10 17:02:28;;;;;;;14.67;6.93;;;2.80;99.90;;;;;;4918280;29;20223;-75
2022/01/10 17:04:56;;;;;;;11.80;5.30;;;2.80;99.90;;;;;;4921992;29;20756;-75
2022/01/10 17:07:23;;;;;;;17.20;7.93;;;2.70;99.90;;;;;;4919131;29;20213;-74
2022/01/10 17:09:54;;;;;;;13.97;5.70;;;2.60;99.90;;;;;;4921911;29;20202;-77
2022/01/10 17:12:22;;;;;;;15.17;6.30;;;2.50;99.90;;;;;;4918174;29;20213;-75
2022/01/10 17:14:49;;;;;;;16.27;6.77;;;2.50;99.90;;;;;;4918593;29;20214;-76
2022/01/10 17:17:18;;;;;;;13.60;6.03;;;2.60;99.90;;;;;;4940973;29;20215;-76
2022/01/10 17:19:45;;;;;;;12.30;5.90;;;2.50;99.90;;;;;;4940914;29;20240;-75
2022/01/10 17:22:13;;;;;;;13.07;6.40;;;2.60;99.90;;;;;;4921857;29;20257;-75
2022/01/10 17:24:40;;;;;;;13.07;6.27;;;2.60;99.90;;;;;;4920077;29;20198;-75
2022/01/10 17:27:08;;;;;;;12.20;6.17;;;2.80;99.90;;;;;;4939656;29;20196;-75
2022/01/10 17:29:35;;;;;;;11.33;5.60;;;2.90;99.90;;;;;;4956662;28;20694;-76
2022/01/10 17:32:02;;;;;;;15.40;7.40;;;2.90;99.90;;;;;;4926238;28;20210;-76
2022/01/10 17:34:29;;;;;;;13.23;6.53;;;3.00;99.90;;;;;;4918879;29;20220;-74
2022/01/10 17:36:55;;;;;;;13.67;6.13;;;2.90;99.90;;;;;;4918430;29;20234;-75
2022/01/10 17:39:24;;;;;;;14.37;6.70;;;2.80;99.90;;;;;;4921752;29;20244;-75
2022/01/10 17:41:52;;;;;;;14.17;6.33;;;2.80;99.90;;;;;;4945327;28;20611;-75
2022/01/10 17:44:19;;;;;;;15.63;6.73;;;2.80;99.90;;;;;;4940915;29;20719;-75
2022/01/10 17:46:46;;;;;;;15.73;6.90;;;2.80;99.90;;;;;;4955821;28;20232;-76
2022/01/10 17:49:24;;;;;;;14.63;7.17;;;2.90;99.90;;;;;;4955929;28;20214;-76
2022/01/10 17:51:59;;;;;;;13.20;6.17;;;2.90;99.90;;;;;;4929194;28;20300;-75
2022/01/10 17:54:29;;;;;;;14.43;5.80;;;2.80;99.90;;;;;;4917958;29;20209;-75
2022/01/10 17:56:59;;;;;;;15.27;6.47;;;2.90;99.90;;;;;;4918027;29;20281;-75
2022/01/10 17:59:26;;;;;;;14.40;6.70;;;2.90;99.90;;;;;;4918068;29;20337;-76
2022/01/10 18:01:53;;;;;;;15.93;6.63;;;3.00;99.90;;;;;;4919092;29;20210;-75
2022/01/10 18:04:19;;;;;;;18.87;6.83;;;3.10;99.90;;;;;;4917529;29;20687;-76
2022/01/10 18:06:47;;;;;;;17.60;7.77;;;3.10;99.90;;;;;;4918085;29;20229;-77
2022/01/10 18:09:14;;;;;;;15.20;6.87;;;3.10;99.90;;;;;;4918398;29;20216;-76
2022/01/10 18:11:42;;;;;;;16.30;7.10;;;3.10;99.90;;;;;;4918438;29;20209;-78
2022/01/10 18:14:09;;;;;;;20.93;7.30;;;3.20;99.90;;;;;;4918454;29;20613;-75
2022/01/10 18:16:36;;;;;;;16.33;7.60;;;3.20;99.90;;;;;;4918017;29;20225;-76
2022/01/10 18:19:03;;;;;;;17.20;7.47;;;3.30;99.90;;;;;;4925630;29;20580;-76
2022/01/10 18:21:30;;;;;;;16.60;7.47;;;3.50;99.90;;;;;;4934595;28;20216;-79
2022/01/10 18:23:57;;;;;;;21.27;7.93;;;3.40;99.90;;;;;;4915709;29;22567;-75
2022/01/10 18:26:25;;;;;;;16.30;7.23;;;3.20;99.90;;;;;;4939444;29;20224;-74
2022/01/10 18:28:53;;;;;;;15.97;7.10;;;3.10;99.90;;;;;;4953212;29;20218;-74
2022/01/10 18:31:20;;;;;;;16.93;7.43;;;3.00;99.90;;;;;;4951016;28;20222;-77
2022/01/10 18:33:47;;;;;;;20.03;7.13;;;3.00;99.90;;;;;;4940433;29;20205;-78
2022/01/10 18:36:14;;;;;;;13.07;6.40;;;3.10;99.90;;;;;;4943372;29;20221;-73
2022/01/10 18:38:40;;;;;;;14.90;6.43;;;3.20;99.90;;;;;;4941104;28;20216;-74
2022/01/10 18:41:07;;;;;;;17.53;6.70;;;3.00;99.90;;;;;;4936427;29;20215;-77
2022/01/10 18:43:36;;;;;;;15.03;7.20;;;2.90;99.90;;;;;;4935659;29;20563;-74
2022/01/10 18:46:04;;;;;;;14.93;7.40;;;2.90;99.90;;;;;;4916822;29;20727;-74
2022/01/10 18:48:31;;;;;;;14.83;7.03;;;2.90;99.90;;;;;;4917437;29;20213;-73
2022/01/10 18:50:58;;;;;;;16.80;7.20;;;2.90;99.90;;;;;;4919297;29;20317;-78
2022/01/10 18:53:25;;;;;;;18.43;6.40;;;2.90;99.90;;;;;;4935549;29;20219;-74
2022/01/10 18:55:52;;;;;;;16.17;7.07;;;3.00;99.90;;;;;;4917959;29;20715;-77
2022/01/10 18:58:18;;;;;;;15.23;6.53;;;3.10;99.90;;;;;;4952493;29;20232;-78
2022/01/10 19:00:46;;;;;;;15.00;7.37;;;3.10;99.90;;;;;;4955542;28;20239;-78
2022/01/10 19:03:15;;;;;;;14.00;6.90;;;2.90;99.90;;;;;;4955603;28;20212;-76
2022/01/10 19:05:42;;;;;;;19.67;7.90;;;2.80;99.90;;;;;;4938443;28;20260;-79
2022/01/10 19:08:08;;;;;;;15.67;8.27;;;2.90;99.90;;;;;;4932769;29;20281;-76
2022/01/10 19:10:35;;;;;;;18.93;7.80;;;3.10;99.90;;;;;;4916992;29;20216;-76
2022/01/10 19:13:02;;;;;;;16.27;8.07;;;3.20;99.90;;;;;;4917222;29;20217;-76
2022/01/10 19:15:29;;;;;;;18.70;8.33;;;3.20;99.90;;;;;;4916892;29;20230;-78
2022/01/10 19:17:56;;;;;;;19.93;7.83;;;3.10;99.90;;;;;;4919331;29;20669;-79
2022/01/10 19:20:24;;;;;;;17.57;7.10;;;3.10;99.90;;;;;;4945484;29;20604;-75
2022/01/10 19:22:52;;;;;;;19.47;7.77;;;3.10;99.90;;;;;;4917039;29;20209;-76
2022/01/10 19:25:18;;;;;;;21.20;8.67;;;3.00;99.90;;;;;;4919524;29;20249;-75
2022/01/10 19:27:45;;;;;;;17.00;7.77;;;3.10;99.90;;;;;;4927881;29;20764;-75
2022/01/10 19:30:13;;;;;;;16.00;7.93;;;3.10;99.90;;;;;;4925761;29;20219;-75
2022/01/10 19:32:41;;;;;;;19.17;8.03;;;3.10;99.90;;;;;;4925255;29;20209;-78
2022/01/10 19:35:10;;;;;;;18.50;8.07;;;3.20;99.90;;;;;;4930322;29;20233;-76
2022/01/10 19:37:39;;;;;;;23.97;8.73;;;3.20;99.90;;;;;;4924266;29;20208;-77
2022/01/10 19:40:07;;;;;;;18.60;8.00;;;3.20;99.90;;;;;;4919937;29;20238;-75
2022/01/10 19:42:34;;;;;;;17.03;8.10;;;3.10;99.90;;;;;;4921480;29;20313;-77
2022/01/10 19:45:01;;;;;;;18.57;7.43;;;3.10;99.90;;;;;;4934994;29;20240;-75
2022/01/10 19:47:28;;;;;;;18.47;8.97;;;3.20;99.90;;;;;;4938061;29;20201;-75
2022/01/10 19:49:55;;;;;;;15.63;7.33;;;3.00;99.90;;;;;;4916177;29;20215;-75
2022/01/10 19:52:22;;;;;;;15.70;7.80;;;3.00;99.90;;;;;;4921869;29;20212;-75
2022/01/10 19:54:50;;;;;;;18.87;7.77;;;3.00;99.90;;;;;;4926059;29;20217;-76
2022/01/10 19:57:17;;;;;;;17.60;8.43;;;2.90;99.90;;;;;;4930630;29;20219;-75
2022/01/10 19:59:43;;;;;;;18.17;7.47;;;2.80;99.90;;;;;;4929775;29;20252;-75
2022/01/10 20:02:10;;;;;;;14.53;7.10;;;2.80;99.90;;;;;;4925579;29;20209;-75
2022/01/10 20:04:37;;;;;;;11.77;7.00;;;2.80;99.90;;;;;;4922718;29;20564;-79
2022/01/10 20:07:04;;;;;;;13.23;6.60;;;2.80;99.90;;;;;;4925541;29;20213;-76
2022/01/10 20:09:32;;;;;;;15.97;7.07;;;2.80;99.90;;;;;;4930014;29;20210;-76
2022/01/10 20:12:01;;;;;;;21.90;7.80;;;3.00;99.90;;;;;;4918716;29;20237;-75
2022/01/10 20:14:27;;;;;;;16.20;7.47;;;3.30;99.90;;;;;;4927774;29;20210;-76
2022/01/10 20:16:55;;;;;;;17.83;8.03;;;3.10;99.90;;;;;;4922131;29;20234;-76
2022/01/10 20:19:22;;;;;;;13.17;6.47;;;3.00;99.90;;;;;;4934741;29;20216;-76
2022/01/10 20:21:49;;;;;;;13.17;6.97;;;3.10;99.90;;;;;;4924879;29;20549;-75
2022/01/10 20:24:16;;;;;;;14.57;7.23;;;2.80;99.90;;;;;;4930871;29;20204;-76
2022/01/10 20:26:43;;;;;;;14.47;6.90;;;2.80;99.90;;;;;;4921541;29;20316;-77
2022/01/10 20:29:13;;;;;;;16.00;7.17;;;3.00;99.90;;;;;;4928077;28;20205;-76
2022/01/10 20:31:41;;;;;;;14.20;7.00;;;3.00;99.90;;;;;;4923361;29;20209;-75
2022/01/10 20:34:07;;;;;;;18.33;7.10;;;3.00;99.90;;;;;;4928097;29;20214;-75
2022/01/10 20:36:34;;;;;;;13.07;7.30;;;3.00;99.90;;;;;;4923380;29;20237;-75
2022/01/10 20:39:01;;;;;;;18.00;7.67;;;2.90;99.90;;;;;;4932761;29;20560;-75
2022/01/10 20:41:28;;;;;;;14.47;7.20;;;2.80;99.90;;;;;;4931079;29;20240;-75
2022/01/10 20:43:55;;;;;;;13.73;6.53;;;2.90;99.90;;;;;;4922106;29;20302;-76
2022/01/10 20:46:23;;;;;;;17.13;6.77;;;2.70;99.90;;;;;;4928257;29;20603;-75
2022/01/10 20:48:52;;;;;;;16.53;7.00;;;2.70;99.90;;;;;;4929085;29;20214;-75
2022/01/10 20:51:21;;;;;;;13.03;6.63;;;2.60;99.90;;;;;;4928718;29;20527;-75
2022/01/10 20:53:50;;;;;;;12.93;6.27;;;2.40;99.90;;;;;;4932310;29;20212;-75
2022/01/10 20:56:17;;;;;;;13.53;7.10;;;2.40;99.90;;;;;;4923005;29;20286;-76
2022/01/10 20:58:44;;;;;;;12.80;6.27;;;2.40;99.90;;;;;;4927127;29;20209;-76
2022/01/10 21:01:11;;;;;;;11.87;5.57;;;2.40;99.90;;;;;;4924012;29;20237;-75
2022/01/10 21:03:41;;;;;;;10.77;6.47;;;2.50;99.90;;;;;;4924415;29;20216;-75
2022/01/10 21:06:08;;;;;;;15.27;6.53;;;2.40;99.90;;;;;;4951038;29;20751;-75
2022/01/10 21:08:35;;;;;;;17.33;6.47;;;2.40;99.90;;;;;;4949348;29;20217;-75
2022/01/10 21:11:02;;;;;;;18.37;7.03;;;2.50;99.90;;;;;;4948217;29;20216;-75
2022/01/10 21:13:29;;;;;;;12.47;6.23;;;2.60;99.90;;;;;;4951642;28;20276;-76
2022/01/10 21:15:56;;;;;;;12.50;5.90;;;2.70;99.90;;;;;;4934404;29;20589;-76
2022/01/10 21:18:24;;;;;;;10.87;5.97;;;2.90;99.90;;;;;;4930133;29;21178;-76
2022/01/10 21:20:53;;;;;;;12.97;6.50;;;2.90;99.90;;;;;;4926554;29;20245;-75
2022/01/10 21:23:22;;;;;;;14.20;6.60;;;2.90;99.90;;;;;;4932766;29;20212;-76
2022/01/10 21:25:49;;;;;;;11.77;6.50;;;2.80;99.90;;;;;;4930993;29;20273;-75
2022/01/10 21:28:18;;;;;;;12.30;5.43;;;2.90;99.90;;;;;;4931906;29;20570;-76
2022/01/10 21:30:46;;;;;;;12.73;6.33;;;2.90;99.90;;;;;;4930628;29;20216;-77
2022/01/10 21:33:13;;;;;;;12.73;6.07;;;2.80;99.90;;;;;;4938467;29;20216;-77
2022/01/10 21:35:41;;;;;;;12.70;6.33;;;2.80;99.90;;;;;;4928722;29;20571;-76
2022/01/10 21:38:09;;;;;;;11.40;5.80;;;2.90;99.90;;;;;;4932621;29;20209;-77
2022/01/10 21:40:37;;;;;;;11.60;5.90;;;2.90;99.90;;;;;;4935722;29;20229;-77
2022/01/10 21:43:04;;;;;;;15.77;7.10;;;2.70;99.90;;;;;;4937065;29;20238;-76
2022/01/10 21:45:31;;;;;;;14.03;6.60;;;2.80;99.90;;;;;;4924419;29;20224;-75
2022/01/10 21:47:58;;;;;;;13.27;6.23;;;2.70;99.90;;;;;;4927357;29;20217;-76
2022/01/10 21:50:26;;;;;;;9.03;5.20;;;2.50;99.90;;;;;;4929828;29;20212;-76
2022/01/10 21:52:54;;;;;;;10.07;5.93;;;2.30;99.90;;;;;;4936903;29;20327;-76
2022/01/10 21:55:23;;;;;;;13.03;6.23;;;2.30;99.90;;;;;;4922782;29;20233;-75
